createdAt,value
2018-09-17T00:00:25.594Z,6.30
2018-09-17T00:02:54.134Z,3.80
2018-09-17T00:05:22.731Z,4.17
2018-09-17T00:07:51.393Z,4.10
2018-09-17T00:10:21.123Z,3.70
2018-09-17T00:12:49.650Z,4.03
2018-09-17T00:15:18.350Z,4.33
2018-09-17T00:17:46.985Z,3.53
2018-09-17T00:20:15.686Z,5.23
2018-09-17T00:22:44.293Z,7.23
2018-09-17T00:25:12.908Z,4.23
2018-09-17T00:27:41.552Z,5.87
2018-09-17T00:30:10.049Z,4.77
2018-09-17T00:32:38.622Z,6.23
2018-09-17T00:35:07.222Z,5.30
2018-09-17T00:37:36.045Z,5.33
2018-09-17T00:40:04.577Z,5.83
2018-09-17T00:42:33.185Z,3.80
2018-09-17T00:45:01.789Z,6.13
2018-09-17T00:47:30.297Z,4.80
2018-09-17T00:49:59.070Z,5.40
2018-09-17T00:52:27.679Z,6.23
2018-09-17T00:54:56.260Z,5.07
2018-09-17T00:57:24.773Z,6.60
2018-09-17T00:59:53.381Z,5.57
2018-09-17T01:02:25.603Z,6.20
2018-09-17T01:04:54.202Z,6.27
2018-09-17T01:07:22.818Z,5.60
2018-09-17T01:09:51.426Z,7.63
2018-09-17T01:12:20.105Z,4.90
2018-09-17T01:14:48.689Z,6.97
2018-09-17T01:17:17.213Z,7.63
2018-09-17T01:19:45.848Z,8.13
2018-09-17T01:22:14.429Z,5.23
2018-09-17T01:24:42.947Z,4.67
2018-09-17T01:27:11.553Z,4.53
2018-09-17T01:29:40.108Z,6.40
2018-09-17T01:32:08.787Z,5.53
2018-09-17T01:34:37.384Z,5.23
2018-09-17T01:37:06.042Z,5.23
2018-09-17T01:39:34.578Z,6.20
2018-09-17T01:42:03.137Z,4.40
2018-09-17T01:44:31.920Z,5.43
2018-09-17T01:47:00.538Z,9.23
2018-09-17T01:49:29.093Z,5.23
2018-09-17T01:51:58.153Z,4.37
2018-09-17T01:54:26.653Z,5.67
2018-09-17T01:56:55.337Z,8.00
2018-09-17T01:59:24.047Z,5.37
2018-09-17T02:01:52.604Z,6.40
2018-09-17T02:04:21.146Z,6.20
2018-09-17T02:06:49.798Z,6.60
2018-09-17T02:09:18.450Z,5.43
2018-09-17T02:11:47.022Z,5.27
2018-09-17T02:14:15.752Z,7.20
2018-09-17T02:16:44.331Z,7.10
2018-09-17T02:19:12.995Z,5.17
2018-09-17T02:21:41.441Z,6.30
2018-09-17T02:24:10.049Z,4.43
2018-09-17T02:26:39.788Z,5.83
2018-09-17T02:29:08.420Z,5.93
2018-09-17T02:31:37.101Z,4.63
2018-09-17T02:34:05.824Z,6.80
2018-09-17T02:36:34.404Z,8.30
2018-09-17T02:39:03.263Z,6.47
2018-09-17T02:41:31.849Z,5.83
2018-09-17T02:44:00.289Z,6.03
2018-09-17T02:46:28.864Z,7.17
2018-09-17T02:48:57.609Z,6.27
2018-09-17T02:51:26.188Z,6.23
2018-09-17T02:53:54.891Z,7.23
2018-09-17T02:56:23.662Z,7.23
2018-09-17T02:58:52.587Z,8.30
2018-09-17T03:01:21.330Z,6.83
2018-09-17T03:03:50.655Z,7.97
2018-09-17T03:06:19.326Z,5.83
2018-09-17T03:08:48.626Z,8.97
2018-09-17T03:11:17.125Z,7.37
2018-09-17T03:13:45.886Z,6.13
2018-09-17T03:16:14.593Z,7.77
2018-09-17T03:18:53.977Z,8.70
2018-09-17T03:21:22.545Z,6.17
2018-09-17T03:23:51.155Z,6.83
2018-09-17T03:26:20.520Z,6.57
2018-09-17T03:28:49.119Z,8.03
2018-09-17T03:31:18.004Z,7.00
2018-09-17T03:33:46.793Z,6.63
2018-09-17T03:36:15.365Z,8.07
2018-09-17T03:38:46.103Z,8.93
2018-09-17T03:41:15.264Z,6.00
2018-09-17T03:43:46.473Z,8.07
2018-09-17T03:46:14.961Z,9.27
2018-09-17T03:48:43.496Z,7.20
2018-09-17T03:51:12.619Z,9.07
2018-09-17T03:53:41.552Z,7.30
2018-09-17T03:56:10.145Z,9.13
2018-09-17T03:58:38.730Z,7.80
2018-09-17T04:01:07.491Z,9.37
2018-09-17T04:03:36.119Z,9.27
2018-09-17T04:06:04.766Z,8.50
2018-09-17T04:08:33.809Z,7.60
2018-09-17T04:11:02.424Z,6.87
2018-09-17T04:13:30.930Z,5.70
2018-09-17T04:15:59.488Z,7.00
2018-09-17T04:18:28.043Z,6.63
2018-09-17T04:20:56.593Z,8.13
2018-09-17T04:23:35.213Z,8.63
2018-09-17T04:26:05.074Z,6.73
2018-09-17T04:28:34.028Z,6.90
2018-09-17T04:31:02.731Z,7.47
2018-09-17T04:33:38.468Z,8.40
2018-09-17T04:36:07.448Z,8.77
2018-09-17T04:38:36.133Z,10.27
2018-09-17T04:41:05.855Z,7.30
2018-09-17T04:43:34.644Z,9.20
2018-09-17T04:46:03.181Z,9.48
2018-09-17T04:48:31.657Z,8.13
2018-09-17T04:51:00.122Z,7.53
2018-09-17T04:53:28.584Z,7.20
2018-09-17T04:55:57.154Z,8.63
2018-09-17T04:58:25.641Z,10.93
2018-09-17T05:00:54.090Z,10.10
2018-09-17T05:03:22.640Z,8.93
2018-09-17T05:05:51.116Z,10.17
2018-09-17T05:08:19.618Z,7.40
2018-09-17T05:10:48.341Z,10.30
2018-09-17T05:13:17.101Z,10.43
2018-09-17T05:15:45.521Z,7.93
2018-09-17T05:18:14.139Z,10.20
2018-09-17T05:20:42.705Z,9.20
2018-09-17T05:23:11.297Z,10.53
2018-09-17T05:25:40.810Z,9.20
2018-09-17T05:28:09.670Z,9.40
2018-09-17T05:30:39.261Z,8.00
2018-09-17T05:33:08.129Z,9.90
2018-09-17T05:35:36.763Z,13.17
2018-09-17T05:38:05.265Z,10.30
2018-09-17T05:40:34.045Z,10.63
2018-09-17T05:43:02.755Z,7.77
2018-09-17T05:45:33.077Z,10.43
2018-09-17T05:48:03.029Z,7.90
2018-09-17T05:50:34.761Z,9.23
2018-09-17T05:53:03.420Z,10.23
2018-09-17T05:55:32.113Z,9.23
2018-09-17T05:58:00.737Z,9.67
2018-09-17T06:00:32.485Z,10.27
2018-09-17T06:03:01.256Z,11.33
2018-09-17T06:05:31.803Z,10.50
2018-09-17T06:08:00.363Z,10.37
2018-09-17T06:10:28.984Z,7.87
2018-09-17T06:12:57.665Z,9.30
2018-09-17T06:15:26.445Z,13.07
2018-09-17T06:17:55.208Z,8.23
2018-09-17T06:20:36.648Z,9.60
2018-09-17T06:23:05.609Z,11.13
2018-09-17T06:25:34.238Z,9.70
2018-09-17T06:28:02.948Z,7.60
2018-09-17T06:30:31.642Z,9.00
2018-09-17T06:33:00.453Z,11.87
2018-09-17T06:35:29.325Z,12.67
2018-09-17T06:37:57.899Z,8.87
2018-09-17T06:40:26.444Z,9.63
2018-09-17T06:42:58.418Z,11.07
2018-09-17T06:45:27.129Z,8.10
2018-09-17T06:47:55.781Z,8.00
2018-09-17T06:50:24.420Z,10.00
2018-09-17T06:52:53.189Z,10.43
2018-09-17T06:55:21.804Z,10.60
2018-09-17T06:57:50.533Z,8.93
2018-09-17T07:00:20.030Z,7.77
2018-09-17T07:02:48.633Z,9.00
2018-09-17T07:05:17.336Z,8.60
2018-09-17T07:07:46.098Z,10.20
2018-09-17T07:10:14.968Z,9.30
2018-09-17T07:12:43.650Z,10.63
2018-09-17T07:15:12.402Z,7.37
2018-09-17T07:17:41.052Z,7.30
2018-09-17T07:20:10.683Z,8.60
2018-09-17T07:22:39.484Z,8.00
2018-09-17T07:25:08.192Z,8.70
2018-09-17T07:27:36.905Z,7.67
2018-09-17T07:30:06.718Z,8.20
2018-09-17T07:32:35.384Z,10.97
2018-09-17T07:35:04.282Z,9.93
2018-09-17T07:37:32.952Z,11.63
2018-09-17T07:40:01.693Z,8.37
2018-09-17T07:42:30.488Z,6.57
2018-09-17T07:44:59.375Z,9.40
2018-09-17T07:47:28.166Z,11.73
2018-09-17T07:49:56.891Z,8.87
2018-09-17T07:52:25.781Z,8.93
2018-09-17T07:55:01.319Z,6.87
2018-09-17T07:57:32.772Z,14.20
2018-09-17T08:00:01.381Z,8.77
2018-09-17T08:02:30.114Z,9.17
2018-09-17T08:04:58.958Z,7.33
2018-09-17T08:07:27.602Z,9.60
2018-09-17T08:09:56.234Z,7.63
2018-09-17T08:12:24.877Z,8.80
2018-09-17T08:14:53.616Z,9.00
2018-09-17T08:17:22.370Z,8.47
2018-09-17T08:19:51.125Z,7.10
2018-09-17T08:22:19.768Z,8.37
2018-09-17T08:24:48.440Z,6.97
2018-09-17T08:27:17.344Z,7.70
2018-09-17T08:29:46.068Z,7.53
2018-09-17T08:32:14.915Z,7.07
2018-09-17T08:34:43.656Z,6.53
2018-09-17T08:37:12.392Z,7.10
2018-09-17T08:39:41.056Z,8.13
2018-09-17T08:42:09.917Z,10.50
2018-09-17T08:44:38.816Z,5.57
2018-09-17T08:47:07.410Z,8.20
2018-09-17T08:49:35.929Z,6.07
2018-09-17T08:52:04.408Z,5.43
2018-09-17T08:54:37.171Z,8.10
2018-09-17T08:57:11.505Z,7.10
2018-09-17T09:00:44.744Z,4.63
2018-09-17T09:03:18.247Z,4.80
2018-09-17T09:05:52.225Z,6.13
2018-09-17T09:08:20.968Z,6.83
2018-09-17T09:10:53.714Z,5.90
2018-09-17T09:13:27.579Z,4.27
2018-09-17T09:15:56.095Z,6.20
2018-09-17T09:18:24.875Z,5.17
2018-09-17T09:20:53.563Z,3.90
2018-09-17T09:23:22.305Z,6.73
2018-09-17T09:25:50.984Z,5.27
2018-09-17T09:28:19.611Z,4.87
2018-09-17T09:30:48.398Z,3.97
2018-09-17T09:33:16.941Z,5.73
2018-09-17T09:35:45.580Z,5.00
2018-09-17T09:38:14.838Z,5.97
2018-09-17T09:40:43.366Z,4.63
2018-09-17T09:43:11.955Z,4.40
2018-09-17T09:45:40.445Z,4.87
2018-09-17T09:48:09.145Z,3.70
2018-09-17T09:50:37.635Z,4.10
2018-09-17T09:53:06.250Z,4.43
2018-09-17T09:55:34.700Z,3.60
2018-09-17T09:58:03.175Z,3.73
2018-09-17T10:00:36.881Z,3.40
2018-09-17T10:03:10.514Z,2.10
2018-09-17T10:05:39.252Z,4.17
2018-09-17T10:08:07.757Z,3.70
2018-09-17T10:11:42.267Z,4.30
2018-09-17T10:14:15.825Z,3.03
2018-09-17T10:16:49.606Z,2.50
2018-09-17T10:19:22.979Z,2.83
2018-09-17T10:21:51.569Z,2.27
2018-09-17T10:24:20.075Z,3.50
2018-09-17T10:26:48.600Z,2.90
2018-09-17T10:29:17.320Z,4.17
2018-09-17T10:31:46.143Z,2.87
2018-09-17T10:34:14.609Z,3.97
2018-09-17T10:36:43.082Z,1.67
2018-09-17T10:39:13.016Z,3.07
2018-09-17T10:41:41.557Z,5.50
2018-09-17T10:44:10.078Z,2.17
2018-09-17T10:46:38.556Z,3.43
2018-09-17T10:49:07.824Z,3.00
2018-09-17T10:51:36.246Z,4.53
2018-09-17T10:54:04.660Z,6.53
2018-09-17T10:56:33.128Z,4.23
2018-09-17T10:59:01.624Z,4.03
2018-09-17T11:01:30.188Z,3.30
2018-09-17T11:03:58.608Z,3.10
2018-09-17T11:06:27.200Z,3.03
2018-09-17T11:08:55.687Z,3.43
2018-09-17T11:11:24.354Z,2.87
2018-09-17T11:13:52.848Z,4.07
2018-09-17T11:16:21.324Z,3.43
2018-09-17T11:18:49.727Z,3.00
2018-09-17T11:21:18.309Z,4.83
2018-09-17T11:23:46.769Z,5.63
2018-09-17T11:26:15.305Z,3.13
2018-09-17T11:28:43.787Z,3.43
2018-09-17T11:31:12.436Z,6.20
2018-09-17T11:33:40.953Z,2.27
2018-09-17T11:36:09.606Z,3.30
2018-09-17T11:38:38.111Z,2.60
2018-09-17T11:41:06.720Z,4.90
2018-09-17T11:43:35.209Z,3.87
2018-09-17T11:46:03.707Z,3.83
2018-09-17T11:48:32.306Z,3.30
2018-09-17T11:51:00.893Z,2.13
2018-09-17T11:53:33.319Z,2.37
2018-09-17T11:56:03.431Z,4.13
2018-09-17T11:58:32.955Z,2.17
2018-09-17T12:01:06.999Z,3.23
2018-09-17T12:03:40.779Z,1.60
2018-09-17T12:06:09.633Z,2.63
2018-09-17T12:08:38.217Z,3.10
2018-09-17T12:11:06.762Z,3.10
2018-09-17T12:13:35.367Z,3.50
2018-09-17T12:16:03.901Z,2.80
2018-09-17T12:18:32.260Z,2.73
2018-09-17T12:21:00.779Z,3.67
2018-09-17T12:23:38.702Z,2.20
2018-09-17T12:26:07.247Z,2.07
2018-09-17T12:28:35.896Z,2.70
2018-09-17T12:31:05.333Z,2.93
2018-09-17T12:33:34.864Z,1.80
2018-09-17T12:36:03.966Z,3.23
2018-09-17T12:38:32.865Z,2.27
2018-09-17T12:41:01.484Z,2.10
2018-09-17T12:43:32.315Z,1.50
2018-09-17T12:46:06.562Z,1.57
2018-09-17T12:48:35.185Z,2.30
2018-09-17T12:51:03.844Z,2.43
2018-09-17T12:53:33.277Z,1.50
2018-09-17T12:56:01.841Z,1.70
2018-09-17T12:58:31.053Z,1.60
2018-09-17T13:01:00.637Z,3.30
2018-09-17T13:03:29.329Z,1.83
2018-09-17T13:06:05.230Z,1.97
2018-09-17T13:08:33.670Z,2.27
2018-09-17T13:11:02.820Z,2.93
2018-09-17T13:13:31.281Z,1.73
2018-09-17T13:15:59.657Z,1.50
2018-09-17T13:18:28.216Z,1.80
2018-09-17T13:20:56.693Z,2.53
2018-09-17T13:23:25.396Z,3.03
2018-09-17T13:25:53.908Z,2.10
2018-09-17T13:28:22.381Z,1.90
2018-09-17T13:30:50.832Z,4.07
2018-09-17T13:33:19.305Z,3.00
2018-09-17T13:35:47.972Z,5.10
2018-09-17T13:38:16.574Z,1.77
2018-09-17T13:40:45.094Z,1.70
2018-09-17T13:43:13.595Z,2.23
2018-09-17T13:45:42.036Z,1.63
2018-09-17T13:48:10.529Z,3.03
2018-09-17T13:50:39.090Z,2.60
2018-09-17T13:53:07.681Z,1.77
2018-09-17T13:55:36.101Z,1.87
2018-09-17T13:58:04.669Z,1.70
2018-09-17T14:00:33.311Z,2.10
2018-09-17T14:03:01.811Z,3.20
2018-09-17T14:05:30.277Z,1.50
2018-09-17T14:07:58.878Z,1.53
2018-09-17T14:10:27.606Z,1.40
2018-09-17T14:12:56.378Z,1.37
2018-09-17T14:15:25.848Z,1.73
2018-09-17T14:17:54.569Z,2.37
2018-09-17T14:20:35.175Z,1.80
2018-09-17T14:23:03.701Z,1.87
2018-09-17T14:25:32.170Z,3.20
2018-09-17T14:28:06.212Z,2.47
2018-09-17T14:30:34.706Z,2.10
2018-09-17T14:33:10.387Z,5.03
2018-09-17T14:35:41.382Z,3.00
2018-09-17T14:38:10.701Z,4.20
2018-09-17T14:40:39.467Z,2.37
2018-09-17T14:43:08.041Z,1.87
2018-09-17T14:45:37.913Z,1.43
2018-09-17T14:48:07.209Z,3.03
2018-09-17T14:50:39.072Z,1.70
2018-09-17T14:53:07.717Z,2.27
2018-09-17T14:55:36.848Z,3.03
2018-09-17T14:58:06.947Z,2.10
2018-09-17T15:00:36.179Z,2.13
2018-09-17T15:03:06.185Z,2.30
2018-09-17T15:05:34.846Z,1.50
2018-09-17T15:08:04.222Z,2.23
2018-09-17T15:10:36.367Z,1.87
2018-09-17T15:13:10.796Z,1.40
2018-09-17T15:15:44.712Z,2.13
2018-09-17T15:18:13.720Z,1.40
2018-09-17T15:20:42.943Z,1.80
2018-09-17T15:23:12.309Z,2.37
2018-09-17T15:25:40.773Z,1.80
2018-09-17T15:28:09.423Z,1.97
2018-09-17T15:30:37.916Z,1.33
2018-09-17T15:33:06.654Z,2.30
2018-09-17T15:35:35.420Z,1.70
2018-09-17T15:38:03.990Z,1.60
2018-09-17T15:40:32.724Z,1.57
2018-09-17T15:43:01.453Z,1.80
2018-09-17T15:45:30.358Z,2.20
2018-09-17T15:47:59.280Z,2.70
2018-09-17T15:50:28.891Z,2.63
2018-09-17T15:52:57.391Z,3.90
2018-09-17T15:55:25.881Z,2.50
2018-09-17T15:57:54.867Z,4.47
2018-09-17T16:00:23.365Z,6.03
2018-09-17T16:02:51.870Z,2.63
2018-09-17T16:05:20.432Z,3.10
2018-09-17T16:07:49.206Z,2.30
2018-09-17T16:10:17.628Z,2.90
2018-09-17T16:12:46.101Z,3.10
2018-09-17T16:15:14.589Z,1.70
2018-09-17T16:17:44.811Z,1.50
2018-09-17T16:20:13.574Z,2.27
2018-09-17T16:22:42.178Z,1.63
2018-09-17T16:25:10.704Z,2.20
2018-09-17T16:27:39.888Z,2.60
2018-09-17T16:30:09.805Z,1.90
2018-09-17T16:32:38.382Z,2.83
2018-09-17T16:35:06.879Z,1.67
2018-09-17T16:37:35.334Z,1.57
2018-09-17T16:40:04.466Z,3.03
2018-09-17T16:42:33.292Z,5.30
2018-09-17T16:45:01.729Z,2.37
2018-09-17T16:47:30.326Z,2.47
2018-09-17T16:49:58.784Z,1.80
2018-09-17T16:52:27.289Z,2.87
2018-09-17T16:54:55.752Z,2.40
2018-09-17T16:57:24.252Z,2.77
2018-09-17T16:59:52.769Z,2.37
2018-09-17T17:02:21.255Z,2.77
2018-09-17T17:04:50.691Z,1.73
2018-09-17T17:07:19.092Z,1.90
2018-09-17T17:09:47.517Z,1.80
2018-09-17T17:12:16.031Z,1.60
2018-09-17T17:14:44.729Z,1.83
2018-09-17T17:17:14.320Z,3.80
2018-09-17T17:19:42.955Z,3.50
2018-09-17T17:22:11.648Z,1.60
2018-09-17T17:24:39.996Z,2.23
2018-09-17T17:27:08.561Z,2.70
2018-09-17T17:29:37.136Z,2.97
2018-09-17T17:32:09.201Z,2.50
2018-09-17T17:34:37.678Z,2.83
2018-09-17T17:37:06.121Z,3.60
2018-09-17T17:39:34.626Z,2.47
2018-09-17T17:42:03.250Z,2.10
2018-09-17T17:44:31.794Z,3.60
2018-09-17T17:47:00.329Z,2.93
2018-09-17T17:49:28.888Z,2.90
2018-09-17T17:51:57.472Z,2.40
2018-09-17T17:54:25.803Z,2.95
2018-09-17T17:56:54.233Z,3.73
2018-09-17T17:59:23.117Z,3.43
2018-09-17T18:01:51.584Z,3.45
2018-09-17T18:04:20.172Z,4.03
2018-09-17T18:06:48.617Z,6.10
2018-09-17T18:09:17.021Z,3.87
2018-09-17T18:11:45.540Z,3.33
2018-09-17T18:14:14.041Z,5.57
2018-09-17T18:16:42.786Z,4.83
2018-09-17T18:19:11.168Z,6.73
2018-09-17T18:21:39.789Z,5.13
2018-09-17T18:24:08.236Z,4.23
2018-09-17T18:26:36.739Z,5.77
2018-09-17T18:29:05.399Z,5.63
2018-09-17T18:31:33.815Z,5.33
2018-09-17T18:34:02.432Z,3.47
2018-09-17T18:36:30.914Z,4.83
2018-09-17T18:38:59.374Z,4.20
2018-09-17T18:41:28.024Z,5.23
2018-09-17T18:43:56.457Z,5.03
2018-09-17T18:46:25.045Z,3.80
2018-09-17T18:48:53.455Z,3.97
2018-09-17T18:51:22.010Z,4.28
2018-09-17T18:53:50.476Z,3.43
2018-09-17T18:56:19.076Z,3.23
2018-09-17T18:58:47.642Z,3.37
2018-09-17T19:01:16.188Z,5.40
2018-09-17T19:03:44.679Z,5.10
2018-09-17T19:06:13.183Z,4.10
2018-09-17T19:08:41.767Z,5.47
2018-09-17T19:11:12.121Z,6.73
2018-09-17T19:13:40.660Z,6.03
2018-09-17T19:16:09.108Z,4.53
2018-09-17T19:18:37.519Z,5.93
2018-09-17T19:21:06.213Z,5.47
2018-09-17T19:23:39.742Z,6.53
2018-09-17T19:26:08.277Z,6.70
2018-09-17T19:28:42.209Z,4.93
2018-09-17T19:31:11.656Z,5.50
2018-09-17T19:33:40.126Z,4.57
2018-09-17T19:36:08.911Z,4.67
2018-09-17T19:38:42.409Z,6.33
2018-09-17T19:41:11.013Z,4.43
2018-09-17T19:43:39.539Z,5.17
2018-09-17T19:46:16.597Z,4.37
2018-09-17T19:48:45.030Z,7.03
2018-09-17T19:51:19.676Z,5.47
2018-09-17T19:53:48.294Z,4.40
2018-09-17T19:56:16.779Z,4.70
2018-09-17T19:58:50.369Z,4.87
2018-09-17T20:01:18.946Z,5.73
2018-09-17T20:03:47.377Z,5.90
2018-09-17T20:06:25.269Z,6.60
2018-09-17T20:08:53.652Z,5.00
2018-09-17T20:11:22.955Z,4.73
2018-09-17T20:13:51.460Z,6.30
2018-09-17T20:16:19.857Z,6.83
2018-09-17T20:18:48.421Z,6.97
2018-09-17T20:21:16.841Z,7.93
2018-09-17T20:23:45.270Z,6.57
2018-09-17T20:26:13.752Z,9.77
2018-09-17T20:28:42.221Z,8.87
2018-09-17T20:31:10.770Z,7.30
2018-09-17T20:33:39.208Z,5.13
2018-09-17T20:36:07.741Z,6.27
2018-09-17T20:38:36.213Z,5.67
2018-09-17T20:41:04.618Z,6.17
2018-09-17T20:43:33.085Z,6.33
2018-09-17T20:46:02.001Z,6.00
2018-09-17T20:48:30.447Z,5.67
2018-09-17T20:50:58.845Z,5.03
2018-09-17T20:53:27.378Z,5.67
2018-09-17T20:55:55.897Z,5.00
2018-09-17T20:58:24.352Z,6.97
2018-09-17T21:00:52.973Z,7.00
2018-09-17T21:03:21.380Z,5.87
2018-09-17T21:05:49.920Z,6.10
2018-09-17T21:08:18.938Z,4.23
2018-09-17T21:10:47.460Z,9.40
2018-09-17T21:13:16.036Z,5.33
2018-09-17T21:15:44.638Z,7.73
2018-09-17T21:18:13.125Z,5.93
2018-09-17T21:20:42.220Z,5.00
2018-09-17T21:23:10.764Z,5.27
2018-09-17T21:25:39.320Z,4.20
2018-09-17T21:28:07.813Z,4.93
2018-09-17T21:30:36.331Z,7.67
2018-09-17T21:33:04.741Z,6.33
2018-09-17T21:35:33.240Z,8.33
2018-09-17T21:38:01.905Z,4.40
2018-09-17T21:40:30.416Z,4.43
2018-09-17T21:42:59.497Z,5.67
2018-09-17T21:45:27.796Z,5.43
2018-09-17T21:47:56.310Z,7.30
2018-09-17T21:50:24.950Z,5.37
2018-09-17T21:52:53.498Z,9.40
2018-09-17T21:55:21.959Z,6.43
2018-09-17T21:57:50.471Z,4.13
2018-09-17T22:00:19.050Z,6.27
2018-09-17T22:02:47.525Z,4.00
2018-09-17T22:05:15.950Z,4.60
2018-09-17T22:07:44.446Z,6.97
2018-09-17T22:10:13.017Z,4.50
2018-09-17T22:12:41.429Z,6.20
2018-09-17T22:15:09.898Z,4.50
2018-09-17T22:17:38.374Z,4.10
2018-09-17T22:20:06.864Z,4.67
2018-09-17T22:22:35.409Z,3.90
2018-09-17T22:25:03.879Z,6.27
2018-09-17T22:27:32.514Z,6.33
2018-09-17T22:30:01.039Z,5.87
2018-09-17T22:32:29.554Z,5.67
2018-09-17T22:34:57.872Z,5.47
2018-09-17T22:37:26.277Z,5.17
2018-09-17T22:39:54.775Z,5.70
2018-09-17T22:42:23.435Z,6.00
2018-09-17T22:44:52.472Z,4.67
2018-09-17T22:47:21.031Z,4.93
2018-09-17T22:49:49.594Z,4.13
2018-09-17T22:52:18.320Z,6.10
2018-09-17T22:54:46.934Z,5.43
2018-09-17T22:57:15.424Z,4.20
2018-09-17T22:59:43.925Z,4.53
2018-09-17T23:02:12.546Z,6.27
2018-09-17T23:04:41.169Z,4.47
2018-09-17T23:07:09.743Z,5.63
2018-09-17T23:09:38.263Z,4.83
2018-09-17T23:12:06.890Z,7.63
2018-09-17T23:14:35.324Z,5.20
2018-09-17T23:17:03.842Z,4.23
2018-09-17T23:19:32.318Z,3.73
2018-09-17T23:22:00.905Z,4.33
2018-09-17T23:24:29.389Z,4.50
2018-09-17T23:26:57.976Z,4.50
2018-09-17T23:29:26.473Z,4.13
2018-09-17T23:31:54.905Z,4.03
2018-09-17T23:34:23.389Z,7.20
2018-09-17T23:36:51.844Z,4.90
2018-09-17T23:39:20.288Z,6.53
2018-09-17T23:41:48.717Z,4.27
2018-09-17T23:44:17.160Z,6.23
2018-09-17T23:46:45.689Z,7.73
2018-09-17T23:49:14.206Z,4.23
2018-09-17T23:51:42.600Z,4.43
2018-09-17T23:54:11.184Z,6.10
2018-09-17T23:56:39.729Z,5.70
2018-09-17T23:59:08.298Z,5.60
